LiveATC.Net - Listen to live air traffic control over the Internet!


ICAO: FMEP  IATA: ZSE   Airport: Pierrefonds Airport
City: Saint-Pierre
Country: Reunion   Continent: Africa
FMEP METAR Weather: FMEP 060700Z AUTO 13017KT 9999 FEW036 OVC045 24/15 Q1023 TEMPO 12015G25KT
FMEP Flight Activity (FlightAware)

FMEP Info
Feed Status: UP   Listeners: 3
Listen in your browser - HTML5 player (in browser, HTML5)
Click here to listen with your own player (launches your MP3 player)
Archive Access: FMEP Info
FacilityFrequency
Saint-Pierre Info122.400

NOTICE

Unauthorized use prohibited. See LiveATC.net Terms of Service


Airport/ARTCC Code
Frequency Search
(e.g., 124.400, 128.75)
Site-wide search
 


Browse Feeds
Top 50 Feeds
HF Oceanic Feeds
Coverage Map
Bad Weather Areas

LiveATC FAQ
Offer LiveATC feed
Contact LiveATC.net
Press Inquiries

LiveATC on iPhone
LiveATC on Android

LiveATC Mobile
(Mobile browser)

ATC Audio Archives
Interesting Recordings

LiveATC Forums


Home Page
About LiveATC.net


Terms of Use
Privacy Policy

AIRMETs/SIGMETs

FAA Airport Status
NAS Status
Arrival Demand


Server Software By:
Icecast.org
Liquidsoap